| time (UTC) | temp C | wind direction | speed KPH | gust KPH | rain 1hr cm | rain 24hr cm | rain mn cm | humidity % | barometer mb |
| 20260508185440 | 26 | 0 | 6.4 | 11.3 | 0.00 | 0.13 | 0.13 | 100 | 1008.6 |
| 20260508184937 | 26 | 0 | 8.0 | 14.5 | 0.00 | 0.13 | 0.13 | 100 | 1008.3 |
| 20260508184434 | 26 | 0 | 8.0 | 14.5 | 0.00 | 0.13 | 0.13 | 100 | 1008.3 |
| 20260508183930 | 26 | 0 | 6.4 | 12.9 | 0.00 | 0.13 | 0.13 | 100 | 1008.3 |
| 20260508183427 | 26 | 0 | 8.0 | 12.9 | 0.00 | 0.13 | 0.13 | 100 | 1008.3 |
| 20260508182922 | 26 | 0 | 9.7 | 17.7 | 0.00 | 0.13 | 0.13 | 100 | 1008.3 |
| 20260508182420 | 26 | 0 | 14.5 | 20.9 | 0.00 | 0.13 | 0.13 | 100 | 1008.3 |
| 20260508181920 | 26 | 0 | 17.7 | 27.4 | 0.00 | 0.13 | 0.13 | 100 | 1008.3 |
| 20260508181418 | 26 | 0 | 9.7 | 14.5 | 0.00 | 0.13 | 0.13 | 100 | 1008.3 |
| 20260508180915 | 26 | 0 | 8.0 | 17.7 | 0.00 | 0.13 | 0.13 | 100 | 1008.3 |
| 20260508180412 | 26 | 0 | 8.0 | 11.3 | 0.00 | 0.13 | 0.13 | 100 | 1008.3 |
| 20260508175908 | 26 | 0 | 9.7 | 17.7 | 0.00 | 0.13 | 0.13 | 100 | 1008.3 |
| 20260508175404 | 26 | 0 | 8.0 | 14.5 | 0.00 | 0.13 | 0.13 | 100 | 1008.3 |
| 20260508174903 | 26 | 0 | 9.7 | 17.7 | 0.00 | 0.13 | 0.13 | 100 | 1008.3 |
| 20260508174359 | 26 | 0 | 6.4 | 11.3 | 0.00 | 0.13 | 0.13 | 100 | 1008.6 |
| 20260508173856 | 26 | 0 | 6.4 | 11.3 | 0.00 | 0.13 | 0.13 | 100 | 1008.6 |
| 20260508173353 | 26 | 0 | 8.0 | 17.7 | 0.00 | 0.13 | 0.13 | 100 | 1008.6 |
| 20260508172849 | 26 | 0 | 8.0 | 17.7 | 0.00 | 0.13 | 0.13 | 100 | 1009.0 |
| 20260508172347 | 26 | 0 | 6.4 | 11.3 | 0.00 | 0.13 | 0.13 | 100 | 1009.0 |
| 20260508171842 | 26 | 0 | 6.4 | 14.5 | 0.00 | 0.13 | 0.13 | 100 | 1009.0 |
| 20260508171339 | 26 | 0 | 9.7 | 17.7 | 0.00 | 0.13 | 0.13 | 100 | 1009.0 |
| 20260508170836 | 26 | 0 | 3.2 | 9.7 | 0.00 | 0.13 | 0.13 | 100 | 1009.0 |
| 20260508170334 | 26 | 0 | 6.4 | 11.3 | 0.00 | 0.13 | 0.13 | 100 | 1009.0 |
| 20260508165830 | 26 | 0 | 4.8 | 14.5 | 0.00 | 0.13 | 0.13 | 100 | 1009.0 |
| 20260508165328 | 26 | 0 | 4.8 | 8.0 | 0.00 | 0.13 | 0.13 | 100 | 1009.0 |
| 20260508164823 | 26 | 0 | 4.8 | 8.0 | 0.00 | 0.13 | 0.13 | 100 | 1009.0 |
| 20260508164320 | 26 | 0 | 6.4 | 16.1 | 0.00 | 0.13 | 0.13 | 100 | 1009.0 |
| 20260508163819 | 26 | 0 | 9.7 | 16.1 | 0.00 | 0.10 | 0.10 | 100 | 1009.0 |
| 20260508163316 | 26 | 0 | 11.3 | 22.5 | 0.00 | 0.10 | 0.10 | 100 | 1009.3 |
| 20260508162811 | 26 | 0 | 8.0 | 16.1 | 0.00 | 0.10 | 0.10 | 100 | 1009.3 |
| 20260508162308 | 26 | 0 | 4.8 | 14.5 | 2.39 | 0.05 | 0.05 | 100 | 1009.3 |
| 20260508161806 | 26 | 0 | 14.5 | 32.2 | 0.00 | 0.05 | 0.05 | 100 | 1009.3 |
| 20260508161303 | 26 | 0 | 4.8 | 9.7 | 0.00 | 0.05 | 0.05 | 100 | 1009.3 |
| 20260508160800 | 26 | 0 | 4.8 | 11.3 | 0.00 | 0.03 | 0.03 | 100 | 1009.3 |
| 20260508160259 | 26 | 0 | 1.6 | 6.4 | 0.00 | 0.03 | 0.03 | 100 | 1009.6 |
| 20260508155755 | 26 | 0 | 4.8 | 12.9 | 0.00 | 0.03 | 0.03 | 100 | 1009.6 |
| 20260508155252 | 26 | 0 | 9.7 | 17.7 | 0.00 | 0.03 | 0.03 | 100 | 1009.6 |
| 20260508154748 | 26 | 0 | 8.0 | 12.9 | 0.00 | 0.00 | 0.00 | 100 | 1009.6 |
| 20260508154246 | 26 | 0 | 4.8 | 9.7 | 0.00 | 0.00 | 0.00 | 100 | 1009.6 |
| 20260508153742 | 26 | 0 | 8.0 | 11.3 | 0.00 | 0.00 | 0.00 | 100 | 1009.6 |
| 20260508153240 | 26 | 0 | 6.4 | 17.7 | 0.00 | 0.00 | 0.00 | 100 | 1009.6 |
| 20260508152736 | 26 | 0 | 11.3 | 20.9 | 0.00 | 0.00 | 0.00 | 100 | 1009.6 |
| 20260508152232 | 26 | 0 | 9.7 | 16.1 | 0.00 | 0.00 | 0.00 | 100 | 1010.0 |
| 20260508151728 | 26 | 0 | 8.0 | 11.3 | 0.00 | 0.00 | 0.00 | 100 | 1010.0 |
| 20260508151226 | 26 | 0 | 9.7 | 16.1 | 0.00 | 0.00 | 0.00 | 100 | 1010.0 |
| 20260508150722 | 26 | 0 | 6.4 | 11.3 | 0.00 | 0.00 | 0.00 | 100 | 1010.0 |
| 20260508150219 | 26 | 0 | 8.0 | 16.1 | 0.00 | 0.00 | 0.00 | 100 | 1010.0 |
| 20260508145715 | 26 | 0 | 6.4 | 11.3 | 0.00 | 0.00 | 0.00 | 100 | 1010.0 |
| 20260508145211 | 26 | 0 | 3.2 | 6.4 | 0.00 | 0.00 | 0.00 | 100 | 1010.3 |
| 20260508144709 | 26 | 0 | 9.7 | 16.1 | 0.00 | 0.00 | 0.00 | 100 | 1010.3 |
| 20260508144206 | 26 | 0 | 4.8 | 8.0 | 0.00 | 0.00 | 0.00 | 100 | 1010.3 |
| 20260508143704 | 26 | 0 | 4.8 | 9.7 | 0.00 | 0.00 | 0.00 | 100 | 1010.7 |
| 20260508143201 | 26 | 0 | 6.4 | 11.3 | 0.00 | 0.00 | 0.00 | 100 | 1010.7 |
| 20260508142657 | 26 | 0 | 6.4 | 12.9 | 0.00 | 0.00 | 0.00 | 100 | 1010.7 |
| 20260508142154 | 26 | 0 | 6.4 | 11.3 | 0.00 | 0.00 | 0.00 | 100 | 1010.7 |
| 20260508141650 | 26 | 0 | 6.4 | 11.3 | 0.00 | 0.00 | 0.00 | 100 | 1010.7 |
| 20260508141148 | 26 | 0 | 3.2 | 8.0 | 0.00 | 0.00 | 0.00 | 100 | 1010.7 |
| 20260508140645 | 26 | 0 | 6.4 | 16.1 | 0.00 | 0.00 | 0.00 | 100 | 1010.7 |
| 20260508140142 | 26 | 0 | 8.0 | 11.3 | 0.00 | 0.00 | 0.00 | 100 | 1010.7 |
| 20260508135637 | 26 | 0 | 6.4 | 12.9 | 0.00 | 0.23 | 0.23 | 100 | 1011.0 |
| 20260508135133 | 26 | 0 | 6.4 | 12.9 | 0.00 | 0.23 | 0.23 | 100 | 1011.0 |
| 20260508134630 | 26 | 0 | 9.7 | 17.7 | 0.00 | 0.23 | 0.23 | 100 | 1011.0 |
| 20260508134127 | 26 | 0 | 8.0 | 17.7 | 0.00 | 0.23 | 0.23 | 100 | 1011.0 |
| 20260508133624 | 26 | 0 | 6.4 | 19.3 | 0.00 | 0.23 | 0.23 | 100 | 1011.0 |
| 20260508133121 | 26 | 0 | 12.9 | 32.2 | 0.00 | 0.23 | 0.23 | 100 | 1011.3 |
| 20260508132619 | 26 | 0 | 4.8 | 11.3 | 0.00 | 0.23 | 0.23 | 100 | 1011.3 |
| 20260508132115 | 26 | 0 | 8.0 | 24.1 | 0.00 | 0.23 | 0.23 | 100 | 1011.3 |
| 20260508131611 | 26 | 0 | 8.0 | 16.1 | 0.00 | 0.23 | 0.23 | 100 | 1011.3 |
| 20260508131108 | 26 | 0 | 6.4 | 14.5 | 0.00 | 0.23 | 0.23 | 100 | 1011.3 |
| 20260508130605 | 26 | 0 | 4.8 | 11.3 | 0.00 | 0.23 | 0.23 | 100 | 1011.3 |
| 20260508125557 | 26 | 0 | 4.8 | 8.0 | 0.00 | 0.23 | 0.23 | 100 | 1011.7 |
| 20260508125055 | 26 | 0 | 4.8 | 9.7 | 0.00 | 0.23 | 0.23 | 100 | 1011.7 |
| 20260508124553 | 26 | 0 | 4.8 | 11.3 | 0.00 | 0.23 | 0.23 | 100 | 1011.7 |
| 20260508124049 | 26 | 0 | 6.4 | 12.9 | 0.00 | 0.23 | 0.23 | 100 | 1011.7 |
| 20260508123548 | 26 | 0 | 6.4 | 16.1 | 0.00 | 0.23 | 0.23 | 100 | 1011.7 |
| 20260508123044 | 26 | 0 | 9.7 | 19.3 | 0.00 | 0.23 | 0.23 | 100 | 1012.0 |
| 20260508122541 | 26 | 0 | 12.9 | 20.9 | 1.19 | 0.20 | 0.20 | 100 | 1011.7 |
| 20260508122038 | 26 | 0 | 11.3 | 17.7 | 0.00 | 0.20 | 0.20 | 100 | 1011.7 |
| 20260508121537 | 26 | 0 | 11.3 | 16.1 | 0.00 | 0.20 | 0.20 | 100 | 1011.7 |
| 20260508121034 | 26 | 0 | 14.5 | 22.5 | 0.00 | 0.20 | 0.20 | 100 | 1011.7 |
| 20260508120531 | 26 | 0 | 8.0 | 20.9 | 0.00 | 0.20 | 0.20 | 100 | 1011.7 |
| 20260508120030 | 26 | 0 | 14.5 | 25.7 | 0.00 | 0.20 | 0.20 | 100 | 1011.7 |
| 20260508115527 | 26 | 0 | 14.5 | 29.0 | 0.00 | 0.20 | 0.20 | 100 | 1011.7 |
| 20260508115023 | 26 | 0 | 11.3 | 24.1 | 0.00 | 0.20 | 0.20 | 100 | 1011.7 |
| 20260508114520 | 26 | 0 | 6.4 | 14.5 | 0.00 | 0.20 | 0.20 | 100 | 1011.7 |
| 20260508114017 | 26 | 0 | 4.8 | 14.5 | 0.00 | 0.20 | 0.20 | 100 | 1011.7 |
| 20260508113514 | 26 | 0 | 4.8 | 11.3 | 0.00 | 0.20 | 0.20 | 100 | 1011.7 |
| 20260508113012 | 26 | 0 | 3.2 | 11.3 | 0.00 | 0.20 | 0.20 | 100 | 1011.7 |
| 20260508112508 | 26 | 0 | 1.6 | 6.4 | 0.00 | 0.20 | 0.20 | 100 | 1011.7 |
| 20260508112005 | 26 | 0 | 4.8 | 9.7 | 0.00 | 0.20 | 0.20 | 100 | 1011.7 |
| 20260508111502 | 26 | 0 | 0.0 | 6.4 | 0.00 | 0.20 | 0.20 | 100 | 1011.7 |
| 20260508110959 | 26 | 0 | 1.6 | 3.2 | 0.00 | 0.20 | 0.20 | 100 | 1011.7 |
| 20260508110457 | 26 | 0 | 0.0 | 4.8 | 0.00 | 0.20 | 0.20 | 100 | 1011.3 |
| 20260508105956 | 26 | 0 | 8.0 | 20.9 | 0.00 | 0.20 | 0.20 | 100 | 1011.3 |
| 20260508105453 | 26 | 0 | 0.0 | 3.2 | 0.00 | 0.20 | 0.20 | 100 | 1011.3 |
| 20260508104950 | 26 | 0 | 3.2 | 8.0 | 0.00 | 0.20 | 0.20 | 100 | 1011.3 |
| 20260508104447 | 26 | 0 | 4.8 | 9.7 | 0.00 | 0.20 | 0.20 | 100 | 1011.3 |
| 20260508103944 | 26 | 0 | 4.8 | 11.3 | 0.00 | 0.20 | 0.20 | 100 | 1011.3 |
| 20260508103441 | 26 | 0 | 12.9 | 25.7 | 0.00 | 0.20 | 0.20 | 100 | 1011.3 |
| 20260508102938 | 26 | 0 | 16.1 | 45.1 | 1.19 | 0.15 | 0.15 | 100 | 1011.3 |
| 20260508102437 | 26 | 0 | 19.3 | 35.4 | 0.00 | 0.13 | 0.13 | 100 | 1011.0 |
| 20260508101933 | 26 | 0 | 11.3 | 19.3 | 0.00 | 0.13 | 0.13 | 100 | 1011.0 |
| 20260508101431 | 26 | 0 | 9.7 | 17.7 | 0.00 | 0.13 | 0.13 | 100 | 1011.0 |
| 20260508100928 | 26 | 0 | 9.7 | 16.1 | 0.00 | 0.13 | 0.13 | 100 | 1011.0 |
| 20260508100426 | 26 | 0 | 8.0 | 14.5 | 0.00 | 0.13 | 0.13 | 100 | 1011.0 |
| 20260508095922 | 26 | 0 | 9.7 | 16.1 | 0.00 | 0.13 | 0.13 | 100 | 1010.7 |
| 20260508095420 | 26 | 0 | 11.3 | 24.1 | 0.00 | 0.13 | 0.13 | 100 | 1010.7 |
| 20260508094916 | 26 | 0 | 9.7 | 17.7 | 0.00 | 0.13 | 0.13 | 100 | 1010.7 |
| 20260508094413 | 26 | 0 | 12.9 | 19.3 | 0.00 | 0.13 | 0.13 | 100 | 1010.7 |
| 20260508093910 | 26 | 0 | 8.0 | 11.3 | 0.00 | 0.13 | 0.13 | 100 | 1010.7 |
| 20260508093408 | 26 | 0 | 11.3 | 17.7 | 0.00 | 0.13 | 0.13 | 100 | 1010.7 |
| 20260508092905 | 26 | 0 | 11.3 | 19.3 | 0.00 | 0.13 | 0.13 | 100 | 1010.7 |
| 20260508092403 | 26 | 0 | 8.0 | 16.1 | 0.00 | 0.13 | 0.13 | 100 | 1010.7 |
| 20260508091901 | 26 | 0 | 9.7 | 16.1 | 0.00 | 0.13 | 0.13 | 100 | 1010.7 |
| 20260508091357 | 26 | 0 | 9.7 | 16.1 | 0.00 | 0.13 | 0.13 | 100 | 1010.3 |
| 20260508090855 | 26 | 0 | 11.3 | 17.7 | 0.00 | 0.13 | 0.13 | 100 | 1010.3 |
| 20260508090353 | 26 | 0 | 14.5 | 20.9 | 0.00 | 0.13 | 0.13 | 100 | 1010.3 |
| 20260508085848 | 26 | 0 | 6.4 | 12.9 | 0.00 | 0.13 | 0.13 | 100 | 1010.3 |
| 20260508085345 | 26 | 0 | 11.3 | 19.3 | 0.00 | 0.13 | 0.13 | 100 | 1010.3 |
| 20260508084842 | 26 | 0 | 8.0 | 17.7 | 0.00 | 0.13 | 0.13 | 100 | 1010.0 |
| 20260508084339 | 26 | 0 | 9.7 | 19.3 | 0.00 | 0.13 | 0.13 | 100 | 1010.0 |
| 20260508083837 | 26 | 0 | 9.7 | 17.7 | 0.00 | 0.13 | 0.13 | 100 | 1010.0 |
| 20260508083334 | 26 | 0 | 11.3 | 17.7 | 0.00 | 0.13 | 0.13 | 100 | 1009.6 |
| 20260508082833 | 26 | 0 | 9.7 | 17.7 | 0.00 | 0.13 | 0.13 | 100 | 1009.6 |
| 20260508082331 | 26 | 0 | 12.9 | 22.5 | 0.00 | 0.13 | 0.13 | 100 | 1009.6 |
| 20260508081829 | 26 | 0 | 9.7 | 14.5 | 0.00 | 0.13 | 0.13 | 100 | 1009.6 |
| 20260508081325 | 26 | 0 | 14.5 | 24.1 | 0.00 | 0.13 | 0.13 | 100 | 1009.6 |
| 20260508080822 | 26 | 0 | 11.3 | 22.5 | 0.00 | 0.13 | 0.13 | 100 | 1009.6 |
| 20260508080320 | 26 | 0 | 12.9 | 20.9 | 0.00 | 0.13 | 0.13 | 100 | 1009.6 |
| 20260508075817 | 26 | 0 | 12.9 | 20.9 | 0.00 | 0.13 | 0.13 | 100 | 1009.6 |
| 20260508075313 | 26 | 0 | 8.0 | 16.1 | 0.00 | 0.13 | 0.13 | 100 | 1009.3 |
| 20260508074812 | 26 | 0 | 8.0 | 16.1 | 0.00 | 0.13 | 0.13 | 100 | 1009.3 |
| 20260508074308 | 26 | 0 | 9.7 | 20.9 | 0.00 | 0.13 | 0.13 | 100 | 1009.3 |
| 20260508073805 | 26 | 0 | 12.9 | 24.1 | 0.00 | 0.13 | 0.13 | 100 | 1009.3 |
| 20260508073303 | 26 | 0 | 20.9 | 29.0 | 0.00 | 0.13 | 0.13 | 100 | 1009.3 |
| 20260508072759 | 26 | 0 | 9.7 | 20.9 | 0.00 | 0.13 | 0.13 | 100 | 1009.3 |
| 20260508072256 | 26 | 0 | 12.9 | 20.9 | 0.00 | 0.13 | 0.13 | 100 | 1009.3 |
| 20260508071753 | 26 | 0 | 4.8 | 9.7 | 0.00 | 0.13 | 0.13 | 100 | 1009.0 |
| 20260508071252 | 26 | 0 | 11.3 | 17.7 | 0.00 | 0.13 | 0.13 | 100 | 1009.0 |
| 20260508070749 | 26 | 0 | 14.5 | 24.1 | 0.00 | 0.13 | 0.13 | 100 | 1009.0 |
| 20260508070248 | 26 | 0 | 14.5 | 24.1 | 0.00 | 0.13 | 0.13 | 100 | 1008.6 |
| 20260508065744 | 26 | 0 | 12.9 | 22.5 | 0.00 | 0.13 | 0.13 | 100 | 1008.6 |
| 20260508065242 | 26 | 0 | 14.5 | 22.5 | 0.00 | 0.13 | 0.13 | 100 | 1008.6 |
| 20260508064740 | 26 | 0 | 14.5 | 24.1 | 0.00 | 0.13 | 0.13 | 100 | 1008.6 |
| 20260508064238 | 26 | 0 | 12.9 | 24.1 | 0.00 | 0.13 | 0.13 | 100 | 1008.6 |
| 20260508063735 | 26 | 0 | 9.7 | 17.7 | 0.00 | 0.13 | 0.13 | 100 | 1008.6 |
| 20260508063233 | 26 | 0 | 11.3 | 22.5 | 0.00 | 0.13 | 0.13 | 100 | 1008.6 |
| 20260508062730 | 26 | 0 | 6.4 | 11.3 | 0.00 | 0.13 | 0.13 | 100 | 1008.6 |
| 20260508062227 | 26 | 0 | 8.0 | 17.7 | 0.00 | 0.13 | 0.13 | 100 | 1008.6 |
| 20260508061724 | 26 | 0 | 9.7 | 20.9 | 1.19 | 0.10 | 0.10 | 100 | 1008.6 |
| 20260508061221 | 26 | 0 | 12.9 | 20.9 | 1.19 | 0.08 | 0.08 | 100 | 1008.3 |
| 20260508060717 | 26 | 0 | 16.1 | 32.2 | 0.00 | 0.08 | 0.08 | 100 | 1008.3 |
| 20260508060215 | 26 | 0 | 17.7 | 25.7 | 0.00 | 0.08 | 0.08 | 100 | 1008.3 |
| 20260508055710 | 26 | 0 | 16.1 | 22.5 | 0.00 | 0.08 | 0.08 | 100 | 1008.3 |
| 20260508055208 | 26 | 0 | 14.5 | 22.5 | 0.00 | 0.08 | 0.08 | 100 | 1008.3 |
| 20260508054704 | 26 | 0 | 17.7 | 24.1 | 0.00 | 0.08 | 0.08 | 100 | 1008.3 |
| 20260508054202 | 26 | 0 | 17.7 | 25.7 | 0.00 | 0.08 | 0.08 | 100 | 1008.3 |
| 20260508053658 | 26 | 0 | 14.5 | 19.3 | 0.00 | 0.08 | 0.08 | 100 | 1008.3 |
| 20260508053156 | 26 | 0 | 14.5 | 22.5 | 0.00 | 0.08 | 0.08 | 100 | 1008.3 |
| 20260508052653 | 26 | 0 | 19.3 | 25.7 | 0.00 | 0.08 | 0.08 | 100 | 1008.3 |
| 20260508052150 | 26 | 0 | 17.7 | 24.1 | 0.00 | 0.08 | 0.08 | 100 | 1008.3 |
| 20260508051646 | 26 | 0 | 19.3 | 27.4 | 0.00 | 0.08 | 0.08 | 100 | 1008.3 |
| 20260508051142 | 26 | 0 | 14.5 | 27.4 | 0.00 | 0.08 | 0.08 | 100 | 1008.3 |
| 20260508050638 | 26 | 0 | 14.5 | 24.1 | 0.00 | 0.08 | 0.08 | 100 | 1008.3 |
| 20260508050136 | 26 | 0 | 14.5 | 24.1 | 0.00 | 0.08 | 0.08 | 100 | 1008.3 |
| 20260508045631 | 26 | 0 | 14.5 | 24.1 | 0.00 | 0.08 | 0.08 | 100 | 1008.3 |
| 20260508045130 | 26 | 0 | 17.7 | 33.8 | 0.00 | 0.08 | 0.08 | 100 | 1008.3 |
| 20260508044626 | 26 | 0 | 16.1 | 24.1 | 0.00 | 0.08 | 0.08 | 100 | 1008.3 |
| 20260508044123 | 26 | 0 | 16.1 | 25.7 | 0.00 | 0.08 | 0.08 | 100 | 1008.3 |
| 20260508043619 | 26 | 0 | 19.3 | 29.0 | 0.00 | 0.08 | 0.08 | 100 | 1008.3 |
| 20260508043117 | 26 | 0 | 19.3 | 30.6 | 0.00 | 0.08 | 0.08 | 100 | 1008.3 |
| 20260508042614 | 26 | 0 | 16.1 | 24.1 | 0.00 | 0.08 | 0.08 | 100 | 1008.3 |
| 20260508042111 | 26 | 0 | 20.9 | 29.0 | 0.00 | 0.08 | 0.08 | 100 | 1008.3 |
| 20260508041607 | 26 | 0 | 19.3 | 27.4 | 0.00 | 0.08 | 0.08 | 100 | 1008.3 |
| 20260508041103 | 26 | 0 | 20.9 | 29.0 | 0.00 | 0.08 | 0.08 | 100 | 1008.3 |
| 20260508040600 | 26 | 0 | 20.9 | 29.0 | 0.00 | 0.08 | 0.08 | 100 | 1008.3 |
| 20260508040058 | 26 | 0 | 20.9 | 30.6 | 0.00 | 0.08 | 0.08 | 100 | 1008.3 |
| 20260508035555 | 26 | 0 | 20.9 | 29.0 | 0.00 | 0.08 | 0.08 | 100 | 1008.6 |
| 20260508035052 | 26 | 0 | 17.7 | 27.4 | 0.00 | 0.08 | 0.08 | 100 | 1008.6 |
| 20260508034549 | 26 | 0 | 14.5 | 27.4 | 0.00 | 0.08 | 0.08 | 100 | 1008.6 |
| 20260508034046 | 26 | 0 | 17.7 | 27.4 | 0.00 | 0.08 | 0.08 | 100 | 1008.6 |
| 20260508033544 | 26 | 0 | 17.7 | 29.0 | 0.00 | 0.08 | 0.08 | 100 | 1008.6 |
| 20260508033042 | 26 | 0 | 14.5 | 22.5 | 0.00 | 0.08 | 0.08 | 100 | 1008.6 |
| 20260508032538 | 26 | 0 | 17.7 | 25.7 | 0.00 | 0.08 | 0.08 | 100 | 1008.6 |
| 20260508032036 | 26 | 0 | 17.7 | 27.4 | 0.00 | 0.08 | 0.08 | 100 | 1008.6 |
| 20260508031533 | 26 | 0 | 19.3 | 30.6 | 0.00 | 0.08 | 0.08 | 100 | 1008.6 |
| 20260508031028 | 26 | 0 | 17.7 | 30.6 | 0.00 | 0.08 | 0.08 | 100 | 1009.0 |
| 20260508030525 | 26 | 0 | 19.3 | 30.6 | 0.00 | 0.08 | 0.08 | 100 | 1009.0 |
| 20260508030024 | 26 | 0 | 19.3 | 30.6 | 0.00 | 0.08 | 0.08 | 100 | 1009.0 |
| 20260508025519 | 26 | 0 | 17.7 | 25.7 | 0.00 | 0.08 | 0.08 | 100 | 1009.0 |
| 20260508025016 | 26 | 0 | 17.7 | 24.1 | 0.00 | 0.08 | 0.08 | 100 | 1009.0 |
| 20260508024512 | 26 | 0 | 19.3 | 27.4 | 0.00 | 0.08 | 0.08 | 100 | 1009.3 |
| 20260508024009 | 26 | 0 | 19.3 | 29.0 | 0.00 | 0.08 | 0.08 | 100 | 1009.3 |
| 20260508023506 | 26 | 0 | 16.1 | 27.4 | 0.00 | 0.08 | 0.08 | 100 | 1009.3 |
| 20260508023003 | 26 | 0 | 22.5 | 30.6 | 0.00 | 0.08 | 0.08 | 100 | 1009.6 |
| 20260508022459 | 26 | 0 | 20.9 | 30.6 | 0.00 | 0.08 | 0.08 | 100 | 1009.6 |
| 20260508021955 | 26 | 0 | 19.3 | 27.4 | 0.00 | 0.08 | 0.08 | 100 | 1009.6 |
| 20260508021452 | 26 | 0 | 19.3 | 27.4 | 0.00 | 0.08 | 0.08 | 100 | 1009.6 |
| 20260508020948 | 26 | 0 | 17.7 | 27.4 | 0.00 | 0.08 | 0.08 | 100 | 1009.6 |
| 20260508020446 | 26 | 0 | 17.7 | 24.1 | 0.00 | 0.08 | 0.08 | 100 | 1009.6 |
| 20260508015942 | 26 | 0 | 17.7 | 24.1 | 0.00 | 0.08 | 0.08 | 100 | 1010.0 |
| 20260508015441 | 26 | 0 | 16.1 | 24.1 | 0.00 | 0.08 | 0.08 | 100 | 1010.0 |
| 20260508014937 | 26 | 0 | 14.5 | 22.5 | 0.00 | 0.08 | 0.08 | 100 | 1010.3 |
| 20260508014434 | 26 | 0 | 14.5 | 24.1 | 0.00 | 0.08 | 0.08 | 100 | 1010.3 |
| 20260508013929 | 26 | 0 | 14.5 | 22.5 | 0.00 | 0.08 | 0.08 | 100 | 1010.3 |
| 20260508013426 | 26 | 0 | 17.7 | 24.1 | 0.00 | 0.08 | 0.08 | 100 | 1010.3 |
| 20260508012923 | 26 | 0 | 16.1 | 24.1 | 0.00 | 0.08 | 0.08 | 100 | 1010.3 |
| 20260508012420 | 26 | 0 | 17.7 | 25.7 | 0.00 | 0.08 | 0.08 | 100 | 1010.3 |
| 20260508011918 | 26 | 0 | 17.7 | 29.0 | 0.00 | 0.08 | 0.08 | 100 | 1010.3 |
| 20260508011416 | 26 | 0 | 17.7 | 25.7 | 0.00 | 0.08 | 0.08 | 100 | 1010.3 |
| 20260508010912 | 26 | 0 | 17.7 | 30.6 | 0.00 | 0.08 | 0.08 | 100 | 1010.7 |
| 20260508010410 | 26 | 0 | 17.7 | 25.7 | 0.00 | 0.08 | 0.08 | 100 | 1010.7 |
| 20260508005907 | 26 | 0 | 17.7 | 27.4 | 0.00 | 0.08 | 0.08 | 100 | 1010.7 |
| 20260508005403 | 26 | 0 | 16.1 | 24.1 | 0.00 | 0.08 | 0.08 | 100 | 1010.7 |
| 20260508004900 | 26 | 0 | 16.1 | 24.1 | 0.00 | 0.08 | 0.08 | 100 | 1010.7 |
| 20260508004356 | 26 | 0 | 20.9 | 29.0 | 0.00 | 0.08 | 0.08 | 100 | 1010.7 |
| 20260508003853 | 26 | 0 | 17.7 | 27.4 | 0.00 | 0.08 | 0.08 | 100 | 1011.0 |
| 20260508003349 | 26 | 0 | 19.3 | 27.4 | 0.00 | 0.08 | 0.08 | 100 | 1011.0 |
| 20260508002847 | 26 | 0 | 19.3 | 30.6 | 0.00 | 0.08 | 0.08 | 100 | 1011.0 |
| 20260508002343 | 26 | 0 | 17.7 | 25.7 | 0.00 | 0.08 | 0.08 | 100 | 1011.0 |
| 20260508001840 | 26 | 0 | 17.7 | 27.4 | 0.00 | 0.08 | 0.08 | 100 | 1011.3 |
| 20260508001336 | 26 | 0 | 17.7 | 24.1 | 0.00 | 0.08 | 0.08 | 100 | 1011.3 |
| 20260508000832 | 26 | 0 | 16.1 | 29.0 | 0.00 | 0.08 | 0.08 | 100 | 1011.3 |
| 20260508000328 | 26 | 0 | 19.3 | 27.4 | 0.00 | 0.08 | 0.08 | 100 | 1011.3 |
| 20260507235825 | 26 | 0 | 17.7 | 25.7 | 0.00 | 0.08 | 0.08 | 100 | 1011.3 |
| 20260507235323 | 26 | 0 | 14.5 | 22.5 | 0.00 | 0.08 | 0.08 | 100 | 1011.7 |
| 20260507234820 | 26 | 0 | 17.7 | 24.1 | 0.00 | 0.08 | 0.08 | 100 | 1011.7 |
| 20260507234316 | 26 | 0 | 17.7 | 25.7 | 0.00 | 0.08 | 0.08 | 100 | 1011.7 |
| 20260507233813 | 26 | 0 | 17.7 | 25.7 | 0.00 | 0.08 | 0.08 | 100 | 1011.7 |
| 20260507233311 | 26 | 0 | 17.7 | 29.0 | 0.00 | 0.08 | 0.08 | 100 | 1011.7 |
| 20260507232809 | 26 | 0 | 17.7 | 22.5 | 0.00 | 0.08 | 0.08 | 100 | 1011.7 |
| 20260507232306 | 26 | 0 | 16.1 | 25.7 | 0.00 | 0.08 | 0.08 | 100 | 1011.7 |
| 20260507231801 | 26 | 0 | 16.1 | 24.1 | 0.00 | 0.08 | 0.08 | 100 | 1011.7 |
| 20260507231258 | 26 | 0 | 14.5 | 22.5 | 0.00 | 0.08 | 0.08 | 100 | 1011.7 |
| 20260507230754 | 26 | 0 | 16.1 | 22.5 | 0.00 | 0.08 | 0.08 | 100 | 1011.7 |
| 20260507230252 | 26 | 0 | 17.7 | 24.1 | 0.00 | 0.08 | 0.08 | 100 | 1011.7 |
| 20260507225752 | 26 | 0 | 17.7 | 25.7 | 0.00 | 0.08 | 0.08 | 100 | 1011.7 |
| 20260507225248 | 26 | 0 | 19.3 | 25.7 | 0.00 | 0.08 | 0.08 | 100 | 1011.7 |
| 20260507224744 | 26 | 0 | 19.3 | 27.4 | 0.00 | 0.08 | 0.08 | 100 | 1011.7 |
| 20260507224241 | 26 | 0 | 20.9 | 29.0 | 0.00 | 0.08 | 0.08 | 100 | 1011.7 |
| 20260507223737 | 26 | 0 | 17.7 | 27.4 | 0.00 | 0.08 | 0.08 | 100 | 1011.7 |
| 20260507223234 | 26 | 0 | 14.5 | 27.4 | 0.00 | 0.08 | 0.08 | 100 | 1011.7 |
| 20260507222731 | 26 | 0 | 17.7 | 27.4 | 0.00 | 0.08 | 0.08 | 100 | 1011.7 |
| 20260507222227 | 26 | 0 | 16.1 | 25.7 | 0.00 | 0.08 | 0.08 | 100 | 1011.7 |
| 20260507221724 | 26 | 0 | 19.3 | 25.7 | 0.00 | 0.08 | 0.08 | 100 | 1011.7 |
| 20260507221220 | 26 | 0 | 16.1 | 24.1 | 0.00 | 0.08 | 0.08 | 100 | 1011.7 |
| 20260507220717 | 26 | 0 | 12.9 | 20.9 | 0.00 | 0.08 | 0.08 | 100 | 1011.7 |
| 20260507220215 | 26 | 0 | 17.7 | 27.4 | 0.00 | 0.08 | 0.08 | 100 | 1011.7 |
| 20260507215711 | 26 | 0 | 14.5 | 20.9 | 0.00 | 0.08 | 0.08 | 100 | 1011.7 |
| 20260507215209 | 26 | 0 | 16.1 | 22.5 | 0.00 | 0.08 | 0.08 | 100 | 1011.3 |
| 20260507214706 | 26 | 0 | 17.7 | 27.4 | 0.00 | 0.08 | 0.08 | 100 | 1011.3 |
| 20260507214202 | 26 | 0 | 17.7 | 25.7 | 0.00 | 0.08 | 0.08 | 100 | 1011.7 |
| 20260507213658 | 26 | 0 | 17.7 | 29.0 | 0.00 | 0.08 | 0.08 | 100 | 1011.7 |
| 20260507213155 | 26 | 0 | 16.1 | 25.7 | 0.00 | 0.08 | 0.08 | 100 | 1011.7 |
| 20260507212651 | 26 | 0 | 17.7 | 25.7 | 0.00 | 0.08 | 0.08 | 100 | 1011.3 |
| 20260507212148 | 26 | 0 | 14.5 | 24.1 | 0.00 | 0.08 | 0.08 | 100 | 1011.3 |
| 20260507211645 | 26 | 0 | 14.5 | 22.5 | 0.00 | 0.08 | 0.08 | 100 | 1011.3 |
| 20260507211140 | 26 | 0 | 14.5 | 27.4 | 0.00 | 0.08 | 0.08 | 100 | 1011.0 |
| 20260507210639 | 26 | 0 | 14.5 | 22.5 | 0.00 | 0.08 | 0.08 | 100 | 1011.0 |
| 20260507210135 | 26 | 0 | 14.5 | 20.9 | 0.00 | 0.08 | 0.08 | 100 | 1011.0 |
| 20260507205632 | 26 | 0 | 14.5 | 20.9 | 0.00 | 0.08 | 0.08 | 100 | 1011.0 |
| 20260507205128 | 26 | 0 | 16.1 | 20.9 | 0.00 | 0.08 | 0.08 | 100 | 1011.0 |
| 20260507204624 | 26 | 0 | 12.9 | 19.3 | 0.00 | 0.08 | 0.08 | 100 | 1011.0 |
| 20260507204122 | 26 | 0 | 14.5 | 19.3 | 0.00 | 0.08 | 0.08 | 100 | 1011.0 |
| 20260507203620 | 26 | 0 | 12.9 | 20.9 | 0.00 | 0.08 | 0.08 | 100 | 1010.7 |
| 20260507203117 | 26 | 0 | 14.5 | 20.9 | 0.00 | 0.08 | 0.08 | 100 | 1010.7 |
| 20260507202613 | 26 | 0 | 11.3 | 24.1 | 0.00 | 0.08 | 0.08 | 100 | 1010.7 |
| 20260507202109 | 26 | 0 | 11.3 | 22.5 | 0.00 | 0.08 | 0.08 | 100 | 1010.7 |
| 20260507201604 | 26 | 0 | 9.7 | 16.1 | 0.00 | 0.08 | 0.08 | 100 | 1010.7 |
| 20260507201102 | 26 | 0 | 16.1 | 25.7 | 0.00 | 0.08 | 0.08 | 100 | 1010.7 |
| 20260507200557 | 26 | 0 | 9.7 | 20.9 | 0.00 | 0.08 | 0.08 | 100 | 1010.7 |
| 20260507200053 | 26 | 0 | 11.3 | 17.7 | 0.00 | 0.08 | 0.08 | 100 | 1010.3 |
| 20260507195551 | 26 | 0 | 14.5 | 22.5 | 0.00 | 0.08 | 0.08 | 100 | 1010.3 |
| 20260507195048 | 26 | 0 | 14.5 | 19.3 | 0.00 | 0.08 | 0.08 | 100 | 1010.3 |
| 20260507194544 | 26 | 0 | 8.0 | 17.7 | 0.00 | 0.08 | 0.08 | 100 | 1010.3 |
| 20260507194040 | 26 | 0 | 12.9 | 17.7 | 0.00 | 0.08 | 0.08 | 100 | 1010.3 |
| 20260507193537 | 26 | 0 | 14.5 | 22.5 | 0.00 | 0.08 | 0.08 | 100 | 1010.3 |
| 20260507193034 | 26 | 0 | 12.9 | 22.5 | 0.00 | 0.08 | 0.08 | 100 | 1010.3 |
| 20260507192530 | 26 | 0 | 11.3 | 17.7 | 0.00 | 0.08 | 0.08 | 100 | 1010.3 |
| 20260507192027 | 26 | 0 | 14.5 | 24.1 | 0.00 | 0.08 | 0.08 | 100 | 1010.3 |
| 20260507191523 | 26 | 0 | 9.7 | 17.7 | 0.00 | 0.08 | 0.08 | 100 | 1010.0 |
| 20260507191020 | 26 | 0 | 4.8 | 11.3 | 0.00 | 0.08 | 0.08 | 100 | 1010.0 |
| 20260507190517 | 26 | 0 | 4.8 | 9.7 | 0.00 | 0.08 | 0.08 | 100 | 1010.0 |
| 20260507190016 | 26 | 0 | 8.0 | 16.1 | 0.00 | 0.08 | 0.08 | 100 | 1010.0 |